createdAt,value
2018-12-06T00:03:03.988Z,64.61
2018-12-06T00:08:16.132Z,64.93
2018-12-06T00:13:18.913Z,64.72
2018-12-06T00:18:21.798Z,64.47
2018-12-06T00:23:24.828Z,64.92
2018-12-06T00:28:27.716Z,64.80
2018-12-06T00:33:30.628Z,64.94
2018-12-06T00:38:33.654Z,65.02
2018-12-06T00:43:36.420Z,64.75
2018-12-06T00:48:39.187Z,64.87
2018-12-06T00:53:42.157Z,65.08
2018-12-06T00:58:44.905Z,65.16
2018-12-06T01:03:47.811Z,65.06
2018-12-06T01:08:50.731Z,64.88
2018-12-06T01:13:53.562Z,65.15
2018-12-06T01:18:56.412Z,65.01
2018-12-06T01:23:59.442Z,65.15
2018-12-06T01:29:02.321Z,65.42
2018-12-06T01:34:05.207Z,64.74
2018-12-06T01:39:08.330Z,64.86
2018-12-06T01:44:11.011Z,65.33
2018-12-06T01:49:13.869Z,65.37
2018-12-06T01:54:16.706Z,65.53
2018-12-06T01:59:19.627Z,64.90
2018-12-06T02:04:22.353Z,64.81
2018-12-06T02:09:25.196Z,64.38
2018-12-06T02:14:27.977Z,64.67
2018-12-06T02:19:30.776Z,64.37
2018-12-06T02:24:34.196Z,64.74
2018-12-06T02:29:42.920Z,64.47
2018-12-06T02:34:45.773Z,64.39
2018-12-06T02:39:48.656Z,64.75
2018-12-06T02:44:51.458Z,64.78
2018-12-06T02:49:54.250Z,64.78
2018-12-06T02:54:57.138Z,64.30
2018-12-06T02:59:59.959Z,64.13
2018-12-06T03:05:02.937Z,64.41
2018-12-06T03:10:05.986Z,64.00
2018-12-06T03:15:09.099Z,64.14
2018-12-06T03:20:12.132Z,63.99
2018-12-06T03:25:14.795Z,63.83
2018-12-06T03:30:17.771Z,64.15
2018-12-06T03:35:20.727Z,63.34
2018-12-06T03:40:23.603Z,63.27
2018-12-06T03:45:27.032Z,63.29
2018-12-06T03:50:29.648Z,63.04
2018-12-06T03:55:32.389Z,62.15
2018-12-06T04:00:35.051Z,62.63
2018-12-06T04:05:37.700Z,62.30
2018-12-06T04:10:40.364Z,61.93
2018-12-06T04:15:43.081Z,61.75
2018-12-06T04:20:46.011Z,61.18
2018-12-06T04:25:48.829Z,61.41
2018-12-06T04:30:51.634Z,61.18
2018-12-06T04:35:56.414Z,60.53
2018-12-06T04:40:59.081Z,60.96
2018-12-06T04:46:01.748Z,60.97
2018-12-06T04:51:04.743Z,60.56
2018-12-06T04:56:07.476Z,60.72
2018-12-06T05:01:10.171Z,60.66
2018-12-06T05:06:13.385Z,60.93
2018-12-06T05:11:16.289Z,60.65
2018-12-06T05:16:19.166Z,60.72
2018-12-06T05:21:21.981Z,60.87
2018-12-06T05:26:24.902Z,60.68
2018-12-06T05:31:27.644Z,60.19
2018-12-06T05:36:30.512Z,60.46
2018-12-06T05:41:33.418Z,60.16
2018-12-06T05:46:36.280Z,60.05
2018-12-06T05:51:39.520Z,59.97
2018-12-06T05:56:42.271Z,59.71
2018-12-06T06:01:45.202Z,59.22
2018-12-06T06:06:48.076Z,58.43
2018-12-06T06:11:51.295Z,58.58
2018-12-06T06:16:54.172Z,58.03
2018-12-06T06:21:56.844Z,57.53
2018-12-06T06:26:59.884Z,57.30
2018-12-06T06:32:02.845Z,56.74
2018-12-06T06:37:05.855Z,56.49
2018-12-06T06:42:08.666Z,56.59
2018-12-06T06:47:11.853Z,56.76
2018-12-06T06:52:14.815Z,56.72
2018-12-06T06:57:17.865Z,56.91
2018-12-06T07:02:20.745Z,56.93
2018-12-06T07:07:23.632Z,56.83
2018-12-06T07:12:26.677Z,57.13
2018-12-06T07:17:29.479Z,57.09
2018-12-06T07:22:32.955Z,56.63
2018-12-06T07:27:36.720Z,57.05
2018-12-06T07:32:41.425Z,56.77
2018-12-06T07:37:44.316Z,57.11
2018-12-06T07:42:48.741Z,57.32
2018-12-06T07:47:53.021Z,57.18
2018-12-06T07:52:55.869Z,56.86
2018-12-06T07:57:58.770Z,57.65
2018-12-06T08:03:01.653Z,57.36
2018-12-06T08:08:04.525Z,57.49
2018-12-06T08:13:09.519Z,57.00
2018-12-06T08:18:13.154Z,56.98
2018-12-06T08:23:16.127Z,57.02
2018-12-06T08:34:20.386Z,56.57
2018-12-06T08:39:23.440Z,56.48
2018-12-06T08:44:26.372Z,56.46
2018-12-06T08:49:29.577Z,56.45
2018-12-06T08:54:32.504Z,56.27
2018-12-06T09:04:53.044Z,55.97
2018-12-06T09:09:56.600Z,55.29
2018-12-06T09:14:59.458Z,54.99
2018-12-06T09:20:02.282Z,55.19
2018-12-06T09:30:27.085Z,54.84
2018-12-06T09:35:31.105Z,54.98
2018-12-06T09:40:33.853Z,54.72
2018-12-06T09:45:38.088Z,54.79
2018-12-06T09:50:41.091Z,54.72
2018-12-06T09:55:48.713Z,54.65
2018-12-06T10:00:56.298Z,54.73
2018-12-06T10:06:00.520Z,54.96
2018-12-06T10:11:03.609Z,55.11
2018-12-06T10:21:32.576Z,55.20
2018-12-06T10:26:35.361Z,55.20
2018-12-06T10:37:04.117Z,55.48
2018-12-06T10:42:07.153Z,55.54
2018-12-06T10:47:09.996Z,55.59
2018-12-06T10:52:12.849Z,56.01
2018-12-06T10:57:20.207Z,55.72
2018-12-06T11:02:30.097Z,55.84
2018-12-06T11:07:34.596Z,55.91
2018-12-06T11:12:37.929Z,56.00
2018-12-06T11:17:40.597Z,55.59
2018-12-06T11:22:44.012Z,56.31
2018-12-06T11:27:46.699Z,55.96
2018-12-06T11:32:50.225Z,56.17
2018-12-06T11:37:53.006Z,56.02
2018-12-06T11:42:55.895Z,56.97
2018-12-06T11:47:59.480Z,56.92
2018-12-06T11:53:02.235Z,56.83
2018-12-06T11:58:11.459Z,56.95
2018-12-06T12:03:09.973Z,56.95
2018-12-06T12:08:12.897Z,57.18
2018-12-06T12:13:16.837Z,57.46
2018-12-06T12:18:23.541Z,57.36
2018-12-06T12:23:26.832Z,57.73
2018-12-06T12:28:29.841Z,57.68
2018-12-06T12:33:33.626Z,57.74
2018-12-06T12:38:39.383Z,57.75
2018-12-06T12:43:43.079Z,57.59
2018-12-06T12:48:45.917Z,58.74
2018-12-06T12:53:55.684Z,58.87
2018-12-06T12:58:58.221Z,58.99
2018-12-06T13:04:01.220Z,59.45
2018-12-06T13:09:07.132Z,59.72
2018-12-06T13:14:12.521Z,60.32
2018-12-06T13:19:15.363Z,60.30
2018-12-06T13:24:18.785Z,60.81
2018-12-06T13:29:21.613Z,60.57
2018-12-06T13:34:24.400Z,61.43
2018-12-06T13:44:51.022Z,62.07
2018-12-06T13:49:53.794Z,62.47
2018-12-06T13:54:56.863Z,62.67
2018-12-06T13:59:59.676Z,62.89
2018-12-06T14:05:04.083Z,63.03
2018-12-06T14:15:20.707Z,63.47
2018-12-06T14:20:23.733Z,64.05
2018-12-06T14:25:26.720Z,64.39
2018-12-06T14:30:29.702Z,64.78
2018-12-06T14:35:32.648Z,65.28
2018-12-06T14:40:35.601Z,65.64
2018-12-06T14:45:38.846Z,66.42
2018-12-06T14:50:42.978Z,66.93
2018-12-06T14:55:45.833Z,67.16
2018-12-06T15:00:48.790Z,67.65
2018-12-06T15:11:15.184Z,68.36
2018-12-06T15:16:18.056Z,68.80
2018-12-06T15:21:20.920Z,68.55
2018-12-06T15:26:23.762Z,68.51
2018-12-06T15:31:30.232Z,68.94
2018-12-06T15:36:33.267Z,69.15
2018-12-06T15:41:36.190Z,70.22
2018-12-06T15:46:39.122Z,70.91
2018-12-06T15:51:42.165Z,71.59
2018-12-06T15:56:46.021Z,73.16
2018-12-06T16:01:49.756Z,73.82
2018-12-06T16:06:53.256Z,74.80
2018-12-06T16:11:56.225Z,75.21
2018-12-06T16:16:59.193Z,76.26
2018-12-06T16:22:02.179Z,77.05
2018-12-06T16:27:05.316Z,77.75
2018-12-06T16:32:09.739Z,77.75
2018-12-06T16:37:20.836Z,78.64
2018-12-06T16:42:23.510Z,78.46
2018-12-06T16:47:26.614Z,79.20
2018-12-06T16:52:29.519Z,79.38
2018-12-06T17:02:56.194Z,80.13
2018-12-06T17:07:59.342Z,80.26
2018-12-06T17:13:02.439Z,80.23
2018-12-06T17:18:06.244Z,80.93
2018-12-06T17:23:09.074Z,81.03
2018-12-06T17:28:12.120Z,80.99
2018-12-06T17:33:14.888Z,81.01
2018-12-06T17:38:22.373Z,81.13
2018-12-06T17:43:25.290Z,81.32
2018-12-06T17:48:28.969Z,81.32
2018-12-06T17:53:31.857Z,81.29
2018-12-06T17:58:35.197Z,81.44
2018-12-06T18:03:38.122Z,81.95
2018-12-06T18:08:41.033Z,82.08
2018-12-06T18:13:43.823Z,82.14
2018-12-06T18:18:46.675Z,81.70
2018-12-06T18:23:50.255Z,82.04
2018-12-06T18:34:12.048Z,82.45
2018-12-06T18:39:14.987Z,82.31
2018-12-06T18:44:17.891Z,82.57
2018-12-06T18:49:20.786Z,82.32
2018-12-06T18:54:23.677Z,82.77
2018-12-06T18:59:26.412Z,82.94
2018-12-06T19:04:29.364Z,82.84
2018-12-06T19:09:32.088Z,82.73
2018-12-06T19:14:35.123Z,82.86
2018-12-06T19:19:38.127Z,82.89
2018-12-06T19:24:42.692Z,83.11
2018-12-06T19:29:46.913Z,82.91
2018-12-06T19:34:50.055Z,83.14
2018-12-06T19:39:52.884Z,83.17
2018-12-06T19:44:56.651Z,83.03
2018-12-06T19:49:59.574Z,83.47
2018-12-06T19:55:02.499Z,82.95
2018-12-06T20:00:08.465Z,83.27
2018-12-06T20:05:11.697Z,83.58
2018-12-06T20:10:14.975Z,83.23
2018-12-06T20:15:17.840Z,83.54
2018-12-06T20:20:23.834Z,82.98
2018-12-06T20:25:25.802Z,82.92
2018-12-06T20:30:28.640Z,83.00
2018-12-06T20:35:31.602Z,82.97
2018-12-06T20:40:34.729Z,82.75
2018-12-06T20:45:37.641Z,82.94
2018-12-06T20:50:49.157Z,82.75
2018-12-06T20:55:46.962Z,82.98
2018-12-06T21:00:49.757Z,82.80
2018-12-06T21:05:52.844Z,82.97
2018-12-06T21:10:55.640Z,83.19
2018-12-06T21:15:58.518Z,83.12
2018-12-06T21:21:01.339Z,82.88
2018-12-06T21:26:04.313Z,83.29
2018-12-06T21:31:07.258Z,83.28
2018-12-06T21:36:12.021Z,82.72
2018-12-06T21:41:15.167Z,82.69
2018-12-06T21:46:17.950Z,82.55
2018-12-06T21:51:21.710Z,82.36
2018-12-06T21:56:24.941Z,82.07
2018-12-06T22:01:27.897Z,82.37
2018-12-06T22:06:30.889Z,82.01
2018-12-06T22:11:33.845Z,81.94
2018-12-06T22:16:36.785Z,81.90
2018-12-06T22:21:40.788Z,81.92
2018-12-06T22:26:43.603Z,82.10
2018-12-06T22:31:46.471Z,81.75
2018-12-06T22:36:49.324Z,81.94
2018-12-06T22:41:52.203Z,81.97
2018-12-06T22:46:54.938Z,81.71
2018-12-06T22:51:57.870Z,82.06
2018-12-06T22:57:00.861Z,81.70
2018-12-06T23:02:03.890Z,81.65
2018-12-06T23:07:08.112Z,81.86
2018-12-06T23:12:11.053Z,81.74
2018-12-06T23:17:13.874Z,81.65
2018-12-06T23:22:17.156Z,81.35
2018-12-06T23:27:19.881Z,81.42
2018-12-06T23:32:22.817Z,81.13
2018-12-06T23:37:25.601Z,81.06
2018-12-06T23:42:28.733Z,80.54
2018-12-06T23:47:31.595Z,81.13
2018-12-06T23:52:34.520Z,80.70
2018-12-06T23:57:37.533Z,80.58
